Aviation Digital Data Service (ADDS)

Output produced by METARs form (0404 UTC 27 April 2015)
found at http://aviationweather.gov/adds/metars/
 
METAR text: KSPB 270400Z AUTO 11004KT 5SM -RA BR BKN008 OVC014 12/11 A3027 RMK AO2 CIG 006V010 P0000 T01170106
Conditions at: KSPB (SCAPPOOSE , OR, US) observed 0400 UTC 27 April 2015
Temperature: 11.7°C (53°F)
Dewpoint: 10.6°C (51°F) [RH = 93%]
Pressure (altimeter): 30.27 inches Hg (1025.1 mb)
Winds: from the ESE (110 degrees) at 5 MPH (4 knots; 2.1 m/s)
Visibility: 5 miles (8 km)
Ceiling: 800 feet AGL
Clouds: broken clouds at 800 feet AGL
overcast cloud deck at 1400 feet AGL
Weather: -RA BR  (light rain, mist)

METAR text: KSPB 270353Z AUTO 00000KT 5SM -RA BR BKN010 OVC016 12/11 A3027 RMK AO2 CIG 006V012 SLP249 P0002 T01170106
Conditions at: KSPB (SCAPPOOSE , OR, US) observed 0353 UTC 27 April 2015
Temperature: 11.7°C (53°F)
Dewpoint: 10.6°C (51°F) [RH = 93%]
Pressure (altimeter): 30.27 inches Hg (1025.1 mb)
[Sea-level pressure: 1024.9 mb]
Winds: calm
Visibility: 5 miles (8 km)
Ceiling: 1000 feet AGL
Clouds: broken clouds at 1000 feet AGL
overcast cloud deck at 1600 feet AGL
Weather: -RA BR  (light rain, mist)

METAR text: KSPB 270253Z AUTO 00000KT 10SM -RA OVC026 12/09 A3026 RMK AO2 RAE07B25 SLP245 P0000 60000 T01220094 53005
Conditions at: KSPB (SCAPPOOSE , OR, US) observed 0253 UTC 27 April 2015
Temperature: 12.2°C (54°F)
Dewpoint: 9.4°C (49°F) [RH = 83%]
Pressure (altimeter): 30.26 inches Hg (1024.8 mb)
[Sea-level pressure: 1024.5 mb]
Winds: calm
Visibility: 10 or more miles (16+ km)
Ceiling: 2600 feet AGL
Clouds: overcast cloud deck at 2600 feet AGL
Weather: -RA  (light rain)

METAR text: KSPB 270235Z AUTO 10003KT 6SM -RA OVC027 13/09 A3025 RMK AO2 RAE07B25 P0000 T01280089
Conditions at: KSPB (SCAPPOOSE , OR, US) observed 0235 UTC 27 April 2015
Temperature: 12.8°C (55°F)
Dewpoint: 8.9°C (48°F) [RH = 77%]
Pressure (altimeter): 30.25 inches Hg (1024.5 mb)
Winds: from the E (100 degrees) at 3 MPH (3 knots; 1.6 m/s)
Visibility: 6 miles (10 km)
Ceiling: 2700 feet AGL
Clouds: overcast cloud deck at 2700 feet AGL
Weather: -RA  (light rain)